Atalissa, IA

5:17 AM CDT on October 02, 2014 (GMT -0500)
Center of Cedar County | Change Station
CLOSE
Current Station
Personal Weather Station
Location: Tipton, IA
Elevation: 823 ft
Nearby Weather Stations

Elev 823 ft 41.77 °N, 91.13 °W | Updated 28 seconds ago

Overcast
Overcast
63.8 °F
Feels Like 63.8 °F
N
4.0
Wind Variable Wind from East
Gusts 5.0 mph

Today
High -- | Low -- °F
--% Chance of Precip.
Yesterday
High -- | Low -- °F
Precip. -- in
7:02 AM 6:44 PM
First Quarter, 57% visible
Pressure 29.81 in
Visibility 3.0 miles
Clouds Scattered Clouds 1700 ft
Dew Point 61 °F
Humidity 92%
Rainfall 0.00 in
Snow Depth Not available.
UV 0 out of 12
Pollen 2.00 out of 12
Air Quality Not available.
Flu Activity Not available.
METAR KMUT 020955Z AUTO 00000KT 3SM BR SCT017 17/16 A2981 RMK AO2

More Conditions Fewer Conditions

Pressure 29.81 in
Visibility 3.0 miles
Clouds Scattered Clouds 1700 ft
Dew Point 61 °F
Humidity 92%
Rainfall 0.00 in
Snow Depth Not available.
UV 0 out of 12
Pollen 2.00 out of 12
Air Quality Not available.
Flu Activity Not available.
METAR KMUT 020955Z AUTO 00000KT 3SM BR SCT017 17/16 A2981 RMK AO2

More Conditions Fewer Conditions

10-Day Weather Forecast

Almanac

Astronomy

Oct. 02, 2014 Rise Set
Actual Time 7:02 AM CDT 6:44 PM CDT
Civil Twilight 6:34 AM CDT 7:12 PM CDT
Nautical Twilight 6:02 AM CDT 7:44 PM CDT
Astronomical Twilight 5:30 AM CDT 8:16 PM CDT
Moon 2:55 PM CDT 12:15 AM CDT
Length of Visible Light 12h 37m
Length of Day
11h 42m
Tomorrow will be 2m 45s shorter.
First Quarter, 57% of the Moon is Illuminated
Today
First Quarter
Oct 8
Full
Oct 15
Last Quarter
Oct 23
New
Oct 30
First Quarter

Today's Extremes

State Highs State Lows

Community

WunderPhotos

Upload Photos

1,758,209 photos uploaded!

WunderBlogs® & News

Nearby

Snow Depth

Station Depth Elevation
No new snow has been reported.

Earthquake Activity

City Distance Mag. Time & Date
No recent earthquake activity has been reported nearby.
Minimum magnitude displayed is 2.5.

Coastal Water Temperatures

Place Temperature
No Stations Reporting

Nearby Weather Stations